createdAt,value
2022-08-10T00:01:51.327Z,1.37
2022-08-10T00:04:23.948Z,1.40
2022-08-10T00:06:53.269Z,1.20
2022-08-10T00:09:23.436Z,1.10
2022-08-10T00:11:52.640Z,1.40
2022-08-10T00:14:21.111Z,1.30
2022-08-10T00:16:49.545Z,1.53
2022-08-10T00:19:18.252Z,1.40
2022-08-10T00:21:47.372Z,1.30
2022-08-10T00:24:15.884Z,1.20
2022-08-10T00:27:52.458Z,1.30
2022-08-10T00:29:34.393Z,1.50
2022-08-10T00:32:02.830Z,1.33
2022-08-10T00:34:31.300Z,1.40
2022-08-10T00:36:59.799Z,1.40
2022-08-10T00:39:28.304Z,1.30
2022-08-10T00:42:06.398Z,1.00
2022-08-10T00:44:36.533Z,1.10
2022-08-10T00:47:05.108Z,1.30
2022-08-10T00:49:34.558Z,1.10
2022-08-10T00:52:02.964Z,1.10
2022-08-10T00:54:31.425Z,1.30
2022-08-10T00:57:16.490Z,1.33
2022-08-10T00:59:59.433Z,1.00
2022-08-10T01:02:28.878Z,1.30
2022-08-10T01:05:00.137Z,1.20
2022-08-10T01:07:33.836Z,1.13
2022-08-10T01:10:06.344Z,1.20
2022-08-10T01:12:47.193Z,1.20
2022-08-10T01:15:16.622Z,1.20
2022-08-10T01:17:50.678Z,1.13
2022-08-10T01:20:30.749Z,1.30
2022-08-10T01:23:20.347Z,1.13
2022-08-10T01:26:11.178Z,1.30
2022-08-10T01:28:46.050Z,1.30
2022-08-10T01:31:16.941Z,1.40
2022-08-10T01:34:02.434Z,1.20
2022-08-10T01:36:34.733Z,1.30
2022-08-10T01:39:03.906Z,1.30
2022-08-10T01:41:45.820Z,1.20
2022-08-10T01:44:15.729Z,1.37
2022-08-10T01:46:47.028Z,1.40
2022-08-10T01:49:15.180Z,1.37
2022-08-10T01:51:44.535Z,1.30
2022-08-10T01:54:13.857Z,1.20
2022-08-10T01:56:42.720Z,1.50
2022-08-10T01:59:11.395Z,1.50
2022-08-10T02:01:40.363Z,1.53
2022-08-10T02:04:10.548Z,1.60
2022-08-10T02:06:39.426Z,1.40
2022-08-10T02:09:08.472Z,1.70
2022-08-10T02:12:05.762Z,1.50
2022-08-10T02:14:25.893Z,1.70
2022-08-10T02:17:01.618Z,1.57
2022-08-10T02:19:31.444Z,1.73
2022-08-10T02:22:15.417Z,1.40
2022-08-10T02:24:48.363Z,1.43
2022-08-10T02:27:16.804Z,1.60
2022-08-10T02:29:45.216Z,1.80
2022-08-10T02:32:30.780Z,2.00
2022-08-10T02:35:07.993Z,1.63
2022-08-10T02:37:36.499Z,1.70
2022-08-10T02:40:05.110Z,1.80
2022-08-10T02:45:24.537Z,1.90
2022-08-10T02:45:30.799Z,1.90
2022-08-10T02:48:00.751Z,1.80
2022-08-10T02:50:30.758Z,2.00
2022-08-10T02:53:00.732Z,1.90
2022-08-10T02:55:32.618Z,1.70
2022-08-10T02:58:17.256Z,1.70
2022-08-10T03:00:47.136Z,1.70
2022-08-10T03:03:18.064Z,2.33
2022-08-10T03:05:47.782Z,1.90
2022-08-10T03:08:16.217Z,2.10
2022-08-10T03:10:44.703Z,2.00
2022-08-10T03:13:13.040Z,2.00
2022-08-10T03:15:41.385Z,2.00
2022-08-10T03:18:09.718Z,1.80
2022-08-10T03:20:39.915Z,1.90
2022-08-10T03:23:12.015Z,2.10
2022-08-10T03:25:40.402Z,2.13
2022-08-10T03:28:08.863Z,1.97
2022-08-10T03:30:37.373Z,1.87
2022-08-10T03:33:06.414Z,2.37
2022-08-10T03:35:34.818Z,2.00
2022-08-10T03:38:03.253Z,2.30
2022-08-10T03:40:45.400Z,2.50
2022-08-10T03:43:15.640Z,2.13
2022-08-10T03:45:55.430Z,2.47
2022-08-10T03:48:44.830Z,2.30
2022-08-10T03:51:13.263Z,2.30
2022-08-10T03:54:04.749Z,2.30
2022-08-10T03:56:32.612Z,2.47
2022-08-10T03:59:01.614Z,2.43
2022-08-10T04:02:43.754Z,2.50
2022-08-10T04:04:23.689Z,2.60
2022-08-10T04:06:54.777Z,2.63
2022-08-10T04:09:23.868Z,2.60
2022-08-10T04:11:53.776Z,2.73
2022-08-10T04:14:38.728Z,2.80
2022-08-10T04:17:13.945Z,2.70
2022-08-10T04:19:44.141Z,2.87
2022-08-10T04:22:14.824Z,2.87
2022-08-10T04:24:43.207Z,3.23
2022-08-10T04:27:13.062Z,3.00
2022-08-10T04:29:41.425Z,3.07
2022-08-10T04:32:10.618Z,3.50
2022-08-10T04:34:39.016Z,3.20
2022-08-10T04:37:09.243Z,3.30
2022-08-10T04:39:37.989Z,2.93
2022-08-10T04:42:06.692Z,3.20
2022-08-10T04:44:36.458Z,3.50
2022-08-10T04:47:04.824Z,2.93
2022-08-10T04:49:56.047Z,3.40
2022-08-10T04:52:21.728Z,3.73
2022-08-10T04:54:53.815Z,3.20
2022-08-10T04:57:22.210Z,3.20
2022-08-10T04:59:51.969Z,3.20
2022-08-10T05:02:29.663Z,3.93
2022-08-10T05:05:00.396Z,3.60
2022-08-10T05:07:28.811Z,3.77
2022-08-10T05:10:00.924Z,3.47
2022-08-10T05:12:36.292Z,3.83
2022-08-10T05:15:07.835Z,3.80
2022-08-10T05:17:36.270Z,3.80
2022-08-10T05:20:06.735Z,4.37
2022-08-10T05:22:36.973Z,4.20
2022-08-10T05:25:05.863Z,4.73
2022-08-10T05:27:34.674Z,4.40
2022-08-10T05:30:04.025Z,4.60
2022-08-10T05:32:57.716Z,4.43
2022-08-10T05:35:22.835Z,4.20
2022-08-10T05:38:09.386Z,4.50
2022-08-10T05:40:42.554Z,4.93
2022-08-10T05:43:14.778Z,4.83
2022-08-10T05:46:19.145Z,4.37
2022-08-10T05:48:40.770Z,4.77
2022-08-10T05:51:23.727Z,5.63
2022-08-10T05:54:00.855Z,5.20
2022-08-10T05:56:56.612Z,4.87
2022-08-10T06:00:31.135Z,5.37
2022-08-10T06:02:32.489Z,5.20
2022-08-10T06:04:59.619Z,5.13
2022-08-10T06:07:28.134Z,5.17
2022-08-10T06:09:59.734Z,5.10
2022-08-10T06:12:30.135Z,5.20
2022-08-10T06:15:05.282Z,5.17
2022-08-10T06:17:34.811Z,5.57
2022-08-10T06:20:04.837Z,5.07
2022-08-10T06:22:33.519Z,5.33
2022-08-10T06:25:37.811Z,4.87
2022-08-10T06:27:50.699Z,5.07
2022-08-10T06:30:20.627Z,5.00
2022-08-10T06:32:49.580Z,5.17
2022-08-10T06:35:19.352Z,5.80
2022-08-10T06:37:50.622Z,5.17
2022-08-10T06:40:20.297Z,5.40
2022-08-10T06:42:49.100Z,4.97
2022-08-10T06:45:18.358Z,5.60
2022-08-10T06:47:46.895Z,5.10
2022-08-10T06:50:17.376Z,5.40
2022-08-10T06:53:05.143Z,5.53
2022-08-10T06:55:49.738Z,5.20
2022-08-10T06:58:26.691Z,5.30
2022-08-10T07:00:55.867Z,4.70
2022-08-10T07:03:25.991Z,5.10
2022-08-10T07:05:54.829Z,5.10
2022-08-10T07:08:25.105Z,5.20
2022-08-10T07:10:53.828Z,5.03
2022-08-10T07:14:13.972Z,4.57
2022-08-10T07:16:11.988Z,5.10
2022-08-10T07:18:40.557Z,4.97
2022-08-10T07:21:08.947Z,5.00
2022-08-10T07:23:57.016Z,5.23
2022-08-10T07:26:30.807Z,5.33
2022-08-10T07:28:59.304Z,4.90
2022-08-10T07:31:55.027Z,5.10
2022-08-10T07:34:28.455Z,4.70
2022-08-10T07:36:58.144Z,4.13
2022-08-10T07:40:02.799Z,3.80
2022-08-10T07:42:17.100Z,3.93
2022-08-10T07:44:46.175Z,4.40
2022-08-10T07:47:15.889Z,4.30
2022-08-10T07:49:44.447Z,5.00
2022-08-10T07:52:12.889Z,4.10
2022-08-10T07:54:43.838Z,3.90
2022-08-10T07:57:12.930Z,3.73
2022-08-10T08:00:00.207Z,3.77
2022-08-10T08:02:34.573Z,3.50
2022-08-10T08:05:04.860Z,4.23
2022-08-10T08:07:33.268Z,4.23
2022-08-10T08:10:03.240Z,4.47
2022-08-10T08:12:36.662Z,4.50
2022-08-10T08:16:17.749Z,4.53
2022-08-10T08:17:59.626Z,4.73
2022-08-10T08:20:29.128Z,4.27
2022-08-10T08:24:14.852Z,3.93
2022-08-10T08:25:49.035Z,3.47
2022-08-10T08:28:17.599Z,4.53
2022-08-10T08:30:48.884Z,4.03
2022-08-10T08:33:19.726Z,3.80
2022-08-10T08:36:06.717Z,4.37
2022-08-10T08:38:35.270Z,3.60
2022-08-10T08:41:05.767Z,4.30
2022-08-10T08:43:45.896Z,3.97
2022-08-10T08:46:28.813Z,4.17
2022-08-10T08:48:59.411Z,4.13
2022-08-10T08:52:11.402Z,4.20
2022-08-10T08:54:22.101Z,3.90
2022-08-10T08:56:56.363Z,4.27
2022-08-10T08:59:26.947Z,3.60
2022-08-10T09:02:09.707Z,3.90
2022-08-10T09:04:53.205Z,3.23
2022-08-10T09:08:01.120Z,3.33
2022-08-10T09:10:17.333Z,3.67
2022-08-10T09:12:50.066Z,3.13
2022-08-10T09:15:40.205Z,2.90
2022-08-10T09:18:10.685Z,3.60
2022-08-10T09:20:40.453Z,2.80
2022-08-10T09:23:14.040Z,3.00
2022-08-10T09:25:45.318Z,2.80
2022-08-10T09:28:16.550Z,2.80
2022-08-10T09:31:10.943Z,3.13
2022-08-10T09:36:25.564Z,2.43
2022-08-10T09:36:32.851Z,2.53
2022-08-10T09:39:05.952Z,2.53
2022-08-10T09:41:41.809Z,2.30
2022-08-10T09:44:15.789Z,2.60
2022-08-10T09:46:49.267Z,1.83
2022-08-10T09:49:18.900Z,2.40
2022-08-10T09:51:50.895Z,2.23
2022-08-10T09:54:40.792Z,2.37
2022-08-10T10:00:09.129Z,2.00
2022-08-10T10:02:40.689Z,2.20
2022-08-10T10:05:11.342Z,2.00
2022-08-10T10:07:40.461Z,2.30
2022-08-10T10:10:10.978Z,2.13
2022-08-10T10:12:42.292Z,1.97
2022-08-10T10:15:24.120Z,1.70
2022-08-10T10:18:06.308Z,1.87
2022-08-10T10:20:36.448Z,1.83
2022-08-10T10:23:07.816Z,1.57
2022-08-10T10:25:51.245Z,1.77
2022-08-10T10:28:23.685Z,1.47
2022-08-10T10:30:56.386Z,1.20
2022-08-10T10:33:27.411Z,1.50
2022-08-10T10:35:56.299Z,1.47
2022-08-10T10:38:26.980Z,1.80
2022-08-10T10:40:59.409Z,1.40
2022-08-10T10:43:31.231Z,1.50
2022-08-10T10:46:05.622Z,1.40
2022-08-10T10:48:39.875Z,1.70
2022-08-10T10:51:11.071Z,1.20
2022-08-10T10:53:41.442Z,1.57
2022-08-10T10:56:14.574Z,1.47
2022-08-10T10:58:45.281Z,1.40
2022-08-10T11:01:16.903Z,1.20
2022-08-10T11:03:50.374Z,1.50
2022-08-10T11:06:20.818Z,1.70
2022-08-10T11:08:52.280Z,1.30
2022-08-10T11:12:01.543Z,1.57
2022-08-10T11:14:25.832Z,1.50
2022-08-10T11:17:01.915Z,1.20
2022-08-10T11:20:02.016Z,1.50
2022-08-10T11:22:20.560Z,1.60
2022-08-10T11:24:50.985Z,2.17
2022-08-10T11:27:22.541Z,2.05
2022-08-10T11:29:54.555Z,2.08
2022-08-10T11:32:26.070Z,1.50
2022-08-10T11:35:11.572Z,1.48
2022-08-10T11:38:31.786Z,2.03
2022-08-10T11:40:37.696Z,1.70
2022-08-10T11:43:10.174Z,1.67
2022-08-10T11:45:51.957Z,1.60
2022-08-10T11:48:54.196Z,1.40
2022-08-10T11:51:17.656Z,1.50
2022-08-10T11:53:47.907Z,1.38
2022-08-10T11:56:18.639Z,1.23
2022-08-10T11:59:10.099Z,1.50
2022-08-10T12:01:45.643Z,1.50
2022-08-10T12:04:15.884Z,1.73
2022-08-10T12:06:59.826Z,1.67
2022-08-10T12:10:09.686Z,1.60
2022-08-10T12:12:19.575Z,1.30
2022-08-10T12:14:52.953Z,1.50
2022-08-10T12:17:22.777Z,1.58
2022-08-10T12:19:59.552Z,1.25
2022-08-10T12:22:32.078Z,1.20
2022-08-10T12:25:07.322Z,1.58
2022-08-10T12:27:37.665Z,1.30
2022-08-10T12:30:06.800Z,1.30
2022-08-10T12:32:37.677Z,1.33
2022-08-10T12:35:08.910Z,1.30
2022-08-10T12:37:37.866Z,1.60
2022-08-10T12:40:33.835Z,1.90
2022-08-10T12:43:13.070Z,1.80
2022-08-10T12:45:53.162Z,1.50
2022-08-10T12:48:22.901Z,1.60
2022-08-10T12:51:01.408Z,1.80
2022-08-10T12:53:35.200Z,1.50
2022-08-10T12:56:04.083Z,1.40
2022-08-10T12:58:59.482Z,1.50
2022-08-10T13:02:09.573Z,1.48
2022-08-10T13:04:22.553Z,1.65
2022-08-10T13:06:54.078Z,1.75
2022-08-10T13:09:23.655Z,1.73
2022-08-10T13:12:36.740Z,1.50
2022-08-10T13:14:43.380Z,1.73
2022-08-10T13:17:12.104Z,1.90
2022-08-10T13:19:56.541Z,1.55
2022-08-10T13:22:30.306Z,1.80
2022-08-10T13:25:00.176Z,1.90
2022-08-10T13:28:01.130Z,1.50
2022-08-10T13:30:33.695Z,1.42
2022-08-10T13:33:07.286Z,1.60
2022-08-10T13:35:35.882Z,1.80
2022-08-10T13:38:07.152Z,1.40
2022-08-10T13:40:35.579Z,1.60
2022-08-10T13:43:04.676Z,1.80
2022-08-10T13:45:33.191Z,1.42
2022-08-10T13:48:08.801Z,1.63
2022-08-10T13:50:37.400Z,1.60
2022-08-10T13:53:14.309Z,1.80
2022-08-10T13:55:54.122Z,1.40
2022-08-10T13:58:24.893Z,1.65
2022-08-10T14:00:56.788Z,1.65
2022-08-10T14:03:25.412Z,1.60
2022-08-10T14:05:54.081Z,1.90
2022-08-10T14:08:26.045Z,1.60
2022-08-10T14:11:09.994Z,1.83
2022-08-10T14:13:42.580Z,1.85
2022-08-10T14:16:11.867Z,1.70
2022-08-10T14:18:42.193Z,1.50
2022-08-10T14:21:10.797Z,1.80
2022-08-10T14:23:42.768Z,1.70
2022-08-10T14:26:22.561Z,1.67
2022-08-10T14:28:52.672Z,1.70
2022-08-10T14:31:22.463Z,1.70
2022-08-10T14:33:53.710Z,1.70
2022-08-10T14:36:25.127Z,1.50
2022-08-10T14:38:55.225Z,1.58
2022-08-10T14:42:00.829Z,1.70
2022-08-10T14:44:12.875Z,1.70
2022-08-10T14:46:42.413Z,1.80
2022-08-10T14:49:26.377Z,1.70
2022-08-10T14:51:58.532Z,1.85
2022-08-10T14:54:29.775Z,1.58
2022-08-10T14:56:58.425Z,1.58
2022-08-10T15:00:22.569Z,1.65
2022-08-10T15:02:39.066Z,1.48
2022-08-10T15:05:09.194Z,1.38
2022-08-10T15:07:38.103Z,1.67
2022-08-10T15:10:09.304Z,1.83
2022-08-10T15:12:38.392Z,1.55
2022-08-10T15:15:08.338Z,1.80
2022-08-10T15:17:39.738Z,1.88
2022-08-10T15:20:15.235Z,2.05
2022-08-10T15:22:46.287Z,2.00
2022-08-10T15:25:19.517Z,1.52
2022-08-10T15:27:55.711Z,1.73
2022-08-10T15:30:32.039Z,2.00
2022-08-10T15:33:21.611Z,1.83
2022-08-10T15:36:25.044Z,1.88
2022-08-10T15:39:05.610Z,1.60
2022-08-10T15:41:58.472Z,1.50
2022-08-10T15:44:36.677Z,1.58
2022-08-10T15:47:06.117Z,1.80
2022-08-10T15:49:36.497Z,2.13
2022-08-10T15:52:05.736Z,1.75
2022-08-10T15:54:34.987Z,1.50
2022-08-10T15:57:05.137Z,1.70
2022-08-10T15:59:34.097Z,1.63
2022-08-10T16:02:16.327Z,1.63
2022-08-10T16:04:48.782Z,1.80
2022-08-10T16:07:18.817Z,1.40
2022-08-10T16:10:22.694Z,1.67
2022-08-10T16:12:40.749Z,1.50
2022-08-10T16:15:18.710Z,1.83
2022-08-10T16:17:54.807Z,1.77
2022-08-10T16:20:25.869Z,1.33
2022-08-10T16:22:58.728Z,1.60
2022-08-10T16:25:47.903Z,1.60
2022-08-10T16:28:20.152Z,1.90
2022-08-10T16:30:52.764Z,1.70
2022-08-10T16:33:28.090Z,1.90
2022-08-10T16:36:16.095Z,1.98
2022-08-10T16:38:44.860Z,1.85
2022-08-10T16:41:54.911Z,1.98
2022-08-10T16:44:03.452Z,2.10
2022-08-10T16:46:31.827Z,1.67
2022-08-10T16:49:00.207Z,1.80
2022-08-10T16:51:28.617Z,1.80
2022-08-10T16:53:56.997Z,2.20
2022-08-10T16:56:25.957Z,1.65
2022-08-10T16:58:56.114Z,1.60
2022-08-10T17:01:28.199Z,2.17
2022-08-10T17:04:08.252Z,1.70
2022-08-10T17:06:40.013Z,3.40
2022-08-10T17:09:08.921Z,1.88
2022-08-10T17:11:37.704Z,1.60
2022-08-10T17:14:08.713Z,1.93
2022-08-10T17:16:38.867Z,1.73
2022-08-10T17:19:09.202Z,2.20
2022-08-10T17:21:38.147Z,1.80
2022-08-10T17:24:21.395Z,1.95
2022-08-10T17:26:49.907Z,1.83
2022-08-10T17:29:58.949Z,1.60
2022-08-10T17:32:09.886Z,1.67
2022-08-10T17:34:38.786Z,1.53
2022-08-10T17:37:07.549Z,1.60
2022-08-10T17:39:37.028Z,1.60
2022-08-10T17:42:12.803Z,2.20
2022-08-10T17:44:41.669Z,1.60
2022-08-10T17:47:11.851Z,2.07
2022-08-10T17:49:40.539Z,1.83
2022-08-10T17:52:12.525Z,1.37
2022-08-10T17:54:44.239Z,1.60
2022-08-10T17:57:13.133Z,1.60
2022-08-10T17:59:41.691Z,1.60
2022-08-10T18:02:12.445Z,1.50
2022-08-10T18:04:42.627Z,1.70
2022-08-10T18:07:11.643Z,1.73
2022-08-10T18:09:41.286Z,1.97
2022-08-10T18:12:14.496Z,1.77
2022-08-10T18:14:46.954Z,1.77
2022-08-10T18:17:17.156Z,1.93
2022-08-10T18:19:46.282Z,2.03
2022-08-10T18:22:14.841Z,2.10
2022-08-10T18:24:44.626Z,1.90
2022-08-10T18:27:13.114Z,1.70
2022-08-10T18:29:42.367Z,1.97
2022-08-10T18:32:11.180Z,1.80
2022-08-10T18:34:41.085Z,1.90
2022-08-10T18:37:09.975Z,1.50
2022-08-10T18:39:42.263Z,2.20
2022-08-10T18:42:12.231Z,1.70
2022-08-10T18:44:42.284Z,1.77
2022-08-10T18:47:11.657Z,2.00
2022-08-10T18:49:52.964Z,1.97
2022-08-10T18:52:24.789Z,1.70
2022-08-10T18:54:53.391Z,1.70
2022-08-10T18:57:26.149Z,1.80
2022-08-10T19:00:03.974Z,2.00
2022-08-10T19:02:52.093Z,1.50
2022-08-10T19:05:33.087Z,2.00
2022-08-10T19:08:29.945Z,1.77
2022-08-10T19:11:05.403Z,1.67
2022-08-10T19:13:36.244Z,1.60
2022-08-10T19:16:07.977Z,2.33
2022-08-10T19:18:37.531Z,3.33
2022-08-10T19:21:13.958Z,2.07
2022-08-10T19:23:46.984Z,1.90
2022-08-10T19:26:44.487Z,1.80
2022-08-10T19:30:05.025Z,1.90
2022-08-10T19:32:14.175Z,1.93
2022-08-10T19:34:51.242Z,1.63
2022-08-10T19:37:32.473Z,2.03
2022-08-10T19:40:05.464Z,1.77
2022-08-10T19:42:41.466Z,2.00
2022-08-10T19:46:01.202Z,1.90
2022-08-10T19:48:13.896Z,2.17
2022-08-10T19:50:46.092Z,1.73
2022-08-10T19:53:26.927Z,2.00
2022-08-10T19:55:57.485Z,2.07
2022-08-10T19:58:29.727Z,2.07
2022-08-10T20:00:59.857Z,2.07
2022-08-10T20:03:29.243Z,2.17
2022-08-10T20:06:13.195Z,2.00
2022-08-10T20:08:52.975Z,2.23
2022-08-10T20:11:44.391Z,1.93
2022-08-10T20:14:22.028Z,2.23
2022-08-10T20:16:51.483Z,2.07
2022-08-10T20:19:25.241Z,2.03
2022-08-10T20:22:14.630Z,2.30
2022-08-10T20:24:57.745Z,2.10
2022-08-10T20:28:00.219Z,2.37
2022-08-10T20:30:21.347Z,2.27
2022-08-10T20:32:51.262Z,2.10
2022-08-10T20:35:22.764Z,2.00
2022-08-10T20:38:04.198Z,2.20
2022-08-10T20:40:37.293Z,2.20
2022-08-10T20:43:09.112Z,2.13
2022-08-10T20:46:06.876Z,2.20
2022-08-10T20:48:34.221Z,2.20
2022-08-10T20:51:08.555Z,2.60
2022-08-10T20:53:40.619Z,2.30
2022-08-10T20:56:13.908Z,2.57
2022-08-10T20:58:52.004Z,2.47
2022-08-10T21:01:21.261Z,2.80
2022-08-10T21:04:05.022Z,2.80
2022-08-10T21:06:58.750Z,2.60
2022-08-10T21:09:30.963Z,2.60
2022-08-10T21:12:11.028Z,2.57
2022-08-10T21:14:44.217Z,2.80
2022-08-10T21:17:21.667Z,2.60
2022-08-10T21:20:06.021Z,2.90
2022-08-10T21:22:36.637Z,2.90
2022-08-10T21:25:06.352Z,2.87
2022-08-10T21:28:00.806Z,3.13
2022-08-10T21:30:35.812Z,2.80
2022-08-10T21:33:03.525Z,3.20
2022-08-10T21:35:36.256Z,3.50
2022-08-10T21:38:07.827Z,3.50
2022-08-10T21:40:38.553Z,3.37
2022-08-10T21:43:32.168Z,3.37
2022-08-10T21:46:32.492Z,3.53
2022-08-10T21:49:23.018Z,3.23
2022-08-10T21:52:10.477Z,3.30
2022-08-10T21:54:58.510Z,3.43
2022-08-10T21:57:45.760Z,4.17
2022-08-10T22:00:45.088Z,3.40
2022-08-10T22:03:39.646Z,4.27
2022-08-10T22:06:26.578Z,3.80
2022-08-10T22:09:15.604Z,3.33
2022-08-10T22:12:01.971Z,3.80
2022-08-10T22:14:49.175Z,3.47
2022-08-10T22:18:01.103Z,4.20
2022-08-10T22:20:44.840Z,3.80
2022-08-10T22:23:47.357Z,3.70
2022-08-10T22:26:38.900Z,3.77
2022-08-10T22:29:25.941Z,3.40
2022-08-10T22:32:31.164Z,3.80
2022-08-10T22:35:22.503Z,3.60
2022-08-10T22:38:14.864Z,3.60
2022-08-10T22:41:03.002Z,3.90
2022-08-10T22:43:50.335Z,4.07
2022-08-10T22:46:37.425Z,3.97
2022-08-10T22:49:04.668Z,3.37
2022-08-10T22:51:38.112Z,3.73
2022-08-10T22:54:31.248Z,3.83
2022-08-10T22:57:18.384Z,3.60
2022-08-10T22:59:46.847Z,3.73
2022-08-10T23:02:16.024Z,4.07
2022-08-10T23:04:46.611Z,3.70
2022-08-10T23:07:16.598Z,3.50
2022-08-10T23:09:46.651Z,3.83
2022-08-10T23:12:15.881Z,3.87
2022-08-10T23:14:58.950Z,3.93
2022-08-10T23:18:00.555Z,3.50
2022-08-10T23:20:30.707Z,4.13
2022-08-10T23:23:02.725Z,3.87
2022-08-10T23:25:35.958Z,3.80
2022-08-10T23:28:12.264Z,3.50
2022-08-10T23:30:45.082Z,3.80
2022-08-10T23:33:14.040Z,4.03
2022-08-10T23:36:30.535Z,3.60
2022-08-10T23:38:41.028Z,3.90
2022-08-10T23:41:10.892Z,4.20
2022-08-10T23:44:02.863Z,4.03
2022-08-10T23:46:29.779Z,4.07
2022-08-10T23:48:58.257Z,4.10
2022-08-10T23:51:29.429Z,4.13
2022-08-10T23:54:18.425Z,4.30
2022-08-10T23:56:48.403Z,4.03
2022-08-10T23:59:17.276Z,4.63
